Rachel, Nevada Weather observations

Data are for observation ending at time listed.
 Day   Time    Ave.   Ave.  Ave.  Vector   Max.   Stn.    Total    Solar   Ave.  
  of    of     Air    Rel.  Wind   Wind    Wind   Baro.  Precip.   Rad.    Soil  
Year   Day     Temp.  Hum.  Speed  Dir.    Gust   Pres.                    Temp. 
2026   (PST)    F      %     mph   deg.    mph     mb.     in.     W/m2     F   
------------------------------------------------------------------------------
 128    0:20   55.6    25    1.6   157      2.2   850.6    0.00       0    66.9
 128    0:30   54.6    25    1.0   105      2.4   850.4    0.00       0    66.9
 128    0:40   54.3    25    1.5   183      2.9   850.2    0.00       0    66.7
 128    0:50   53.2    26    2.2   168      3.7   849.9    0.00       0    66.3
 128    1:00   53.1    27    2.2   191      4.1   850.3    0.00       0    66.5
 128    1:10   53.0    27    3.8   217      5.4   850.1    0.00       0    66.1
 128    1:20   52.4    27    4.2   197      5.8   850.1    0.00       0    65.8
 128    1:30   55.9    26    3.4   195      5.8   850.1    0.00       0    65.8
 128    1:40   56.7    25    3.2   195      3.9   850.1    0.00       0    65.7
 128    1:50   56.9    25    3.7   171      5.0   850.1    0.00       0    65.4
 128    2:00   55.9    25    2.0   170      4.2   850.2    0.00       0    65.3
 128    2:10   53.9    27    0.5   207      3.1   850.2    0.00       0    65.2
 128    2:20   55.7    26    0.4     8      3.7   850.2    0.00       0    65.0
 128    2:30   54.8    26    2.1     3      3.5   850.2    0.00       0    64.9
 128    2:40   54.2    28    2.3   310      3.0   850.0    0.00       0    64.7
 128    2:50   53.7    30    2.2   280      3.5   849.8    0.00       0    64.3
 128    3:00   51.4    30    2.1   274      3.4   849.8    0.00       0    64.7
 128    3:10   50.6    32    2.4   269      4.8   850.0    0.00       0    64.4
 128    3:20   50.5    32    1.3   276      2.9   850.0    0.00       0    64.1
 128    3:30   49.9    33    2.1   240      3.6   849.9    0.00       0    64.1
 128    3:40   49.2    34    1.3   250      2.3   849.8    0.00       0    63.9
 128    3:50   48.1    34    0.0     0      0.0   849.8    0.00       0    63.6
 128    4:00   47.2    34    0.6   189      2.4   849.7    0.00       0    63.6
 128    4:10   47.4    35    3.4   194      4.7   849.7    0.00       0    63.3
 128    4:20   46.5    34    3.1   172      4.9   849.7    0.00       0    63.4
 128    4:30   46.6    35    3.2   210      5.9   849.5    0.00       0    63.1
 128    4:40   46.4    34    4.1   244      6.4   849.6    0.00       2    62.9
 128    4:50   45.4    36    4.7   227      5.8   849.6    0.00       5    62.7
 128    5:00   45.6    37    4.0   199      5.0   849.9    0.00      16    62.7
 128    5:10   46.6    36    3.5   212      5.0   850.4    0.00      38    62.5
 128    5:20   48.4    34    2.7   219      3.7   850.4    0.00      66    62.6
 128    5:30   50.9    33    1.6   242      2.9   850.6    0.00      94    62.2
 128    5:40   53.2    31    2.3   261      3.2   850.9    0.00     119    62.5
 128    5:50   53.8    30    3.1   250      3.7   851.3    0.00     146    62.2
 128    6:00   55.1    30    2.0   227      4.0   851.5    0.00     174    62.1
 128    6:10   55.8    30    2.4   218      3.9   851.8    0.00     202    62.0
 128    6:20   57.9    28    1.7   245      2.9   852.0    0.00     231    62.2
 128    6:30   60.4    26    0.3   206      1.4   852.2    0.00     259    62.2
 128    6:40   61.8    25    0.0   218      0.8   852.4    0.00     286    62.4
 128    6:50   64.2    23    0.5   303      3.8   852.7    0.00     313    62.3
 128    7:00   62.1    24    2.1   340      4.0   852.9    0.00     341    62.6
 128    7:10   62.4    24    2.2   355      3.7   853.1    0.00     369    62.6
 128    7:20   63.8    23    1.5     7      4.5   853.2    0.00     394    62.7
 128    7:30   65.3    21    0.9   347      2.3   853.5    0.00     417    63.1
 128    7:40   67.9    19    0.6   286      3.1   853.5    0.00     441    63.5
 128    7:50   68.5    19    1.7   278      3.6   853.7    0.00     465    63.5
 128    8:00   68.6    19    2.2   280      4.8   853.9    0.00     490    64.5
 128    8:10   70.4    18    2.7   267      4.6   854.0    0.00     514    64.3
 128    8:20   72.1    17    2.5   270      4.7   854.0    0.00     536    64.7
 128    8:30   73.1    17    2.4   255      5.8   854.1    0.00     557    65.0
 128    8:40   75.0    15    1.6   212      5.3   854.2    0.00     577    65.4
 128    8:50   75.5    14    2.0   236      7.5   854.4    0.00     597    65.9
 128    9:00   76.9    14    1.2   221      6.7   854.5    0.00     615    66.4
 128    9:10   78.0    13    1.8   266      5.4   854.6    0.00     633    66.8
 128    9:20   76.9    13    3.0   122      7.0   854.7    0.00     651    67.5
 128    9:30   77.1    13    3.2   359      6.7   854.7    0.00     668    67.8
 128    9:40   77.9    12    3.2   296      6.0   854.7    0.00     684    68.6
 128    9:50   78.7    11    3.8   334     11.7   854.7    0.00     696    68.9
 128   10:00   79.1    11    2.9   341      6.7   854.7    0.00     707    69.5
 128   10:10   80.7    11    1.2   302      5.6   854.7    0.00     717    70.2
 128   10:20   80.1    11    5.5     4     10.0   854.7    0.00     729    71.1
 128   10:30   80.4    10    3.1   272      9.9   854.6    0.00     737    71.5
 128   10:40   80.7    10    8.2   318     15.3   854.5    0.00     745    71.9
 128   10:50   80.1    10    7.8    12     12.7   854.4    0.00     754    73.0
 128   11:00   80.9     9    6.5   285     15.9   854.4    0.00     759    73.6
 128   11:10   82.3     8    8.4   335     16.3   854.2    0.00     762    74.2
 128   11:20   81.9     8    8.2   329     16.2   854.1    0.00     767    74.7
 128   11:30   81.6     8   10.5   326     18.4   854.0    0.00     769    76.1
 128   11:40   82.4     8    7.1   312     14.7   853.9    0.00     769    75.8
 128   11:50   82.0     8    7.6     8     16.8   853.8    0.00     770    76.0
 128   12:00   82.6     8    6.0    24     14.4   853.7    0.00     767    77.1
 128   12:10   83.2     8    5.0   300     11.0   853.4    0.00     761    77.1
 128   12:20   83.4     8    4.8   291      8.8   853.3    0.00     747    77.6
 128   12:30   84.1     7    6.1   299     13.9   853.3    0.00     744    77.8
 128   12:40   85.3     5    7.7   273     18.8   853.2    0.00     743    77.3
 128   12:50   85.5     5   10.4   277     19.1   853.2    0.00     737    77.6
 128   13:00   85.0     6   14.4   306     25.8   852.9    0.00     737    77.4
 128   13:10   84.1     6   10.3   324     18.7   852.7    0.00     729    77.3
 128   13:20   84.6     7   13.3   326     23.7   852.7    0.00     714    77.0
 128   13:30   84.1     6    9.7   312     16.6   853.0    0.00     703    76.8
 128   13:40   85.3     6   11.1   306     22.0   853.1    0.00     688    76.7
 128   13:50   85.6     6   13.9   292     24.0   853.0    0.00     671    77.0
 128   14:00   85.7     6   10.8   280     19.1   853.1    0.00     656    77.0
 128   14:10   85.8     6   14.0   294     25.1   852.9    0.00     637    76.7
 128   14:20   84.4     6    8.0   309     17.2   852.7    0.00     618    76.5
 128   14:30   85.5     6   12.9   291     24.1   852.5    0.00     598    76.3
 128   14:40   86.3     6   11.5   279     25.3   852.5    0.00     580    76.3
 128   14:50   85.9     5   12.1   266     24.4   852.4    0.00     558    76.1
 128   15:00   86.3     6   14.9   297     21.7   852.2    0.00     535    76.1
 128   15:10   85.8     6   11.2   277     23.1   852.1    0.00     512    76.1
 128   15:20   85.8     6   11.9   292     21.7   851.7    0.00     489    75.7
 128   15:30   86.2     6   13.5   276     23.0   851.7    0.00     465    76.1
 128   15:40   85.8     6   13.7   282     22.1   851.7    0.00     440    75.6
 128   15:50   86.0     6   13.5   278     22.9   851.7    0.00     416    75.6
 128   16:00   85.6     6   15.3   286     22.2   851.5    0.00     390    75.5
 128   16:10   85.5     6   12.8   278     18.3   851.5    0.00     364    75.8
 128   16:20   86.0     6   12.4   281     21.6   851.4    0.00     338    75.8
 128   16:30   85.1     6   14.9   289     23.3   851.4    0.00     312    75.5
 128   16:40   85.3     6   14.7   278     21.9   851.3    0.00     281    75.7
 128   16:50   84.8     6   14.2   287     20.5   851.3    0.00     257    75.2
 128   17:00   84.3     6   16.1   307     20.2   851.2    0.00     234    75.2
 128   17:10   84.4     6   12.8   291     19.7   851.2    0.00     209    75.1
 128   17:20   83.8     6   13.6   296     20.3   851.1    0.00     182    75.0
 128   17:30   83.1     6   13.6   297     18.5   851.0    0.00     155    74.9
 128   17:40   83.1     7   10.1   295     16.4   850.9    0.00     130    74.5
 128   17:50   82.2     7   11.7   293     16.1   850.9    0.00     107    74.6
 128   18:00   81.4     8   11.1   290     17.1   850.9    0.00      77    74.5
 128   18:10   79.6     9    8.5   290     13.7   850.9    0.00      45    74.4
 128   18:20   78.2    10    9.4   286     14.1   850.8    0.00      26    74.2
 128   18:30   77.4     9   10.0   278     14.3   850.9    0.00      13    74.0
 128   18:40   75.5     9    8.9   283     12.7   850.8    0.00       7    74.2
 128   18:50   74.0    10    8.7   277     12.0   850.5    0.00       3    74.0
 128   19:00   71.2    11    7.5   266      9.7   850.1    0.00       3    73.8
 128   19:10   70.2    10    7.6   252     10.4   849.8    0.00       0    73.7
 128   19:20   70.4    10    6.8   247      9.6   849.7    0.00       0    73.6
 128   19:30   70.1    10    7.0   242      8.8   849.9    0.00       0    73.3
 128   19:40   70.4    10    6.4   239      9.2   850.0    0.00       0    73.7
 128   19:50   70.6    10    6.7   236      8.8   849.9    0.00       0    73.2
 128   20:00   69.4    10    6.4   223      8.1   849.8    0.00       0    72.9
 128   20:10   67.5    10    6.0   215      7.2   849.8    0.00       0    72.5
 128   20:20   65.3    11    2.5   224      5.8   849.8    0.00       0    72.4
 128   20:30   61.6    12    2.2    39      4.2   850.0    0.00       0    72.2
 128   20:40   58.5    13    0.3    65      3.1   849.7    0.00       0    72.1
 128   20:50   56.5    14    2.2   108      4.4   849.5    0.00       0    72.3
 128   21:00   59.0    13    3.3   110      4.5   849.5    0.00       0    71.5
 128   21:10   58.4    13    3.5   146      4.6   849.4    0.00       0    71.5
 128   21:20   58.3    13    4.7   155      6.5   849.4    0.00       0    71.3
 128   21:30   58.4    13    5.5   179      7.5   849.2    0.00       0    71.0
 128   21:40   58.3    14    5.2   183      6.6   849.4    0.00       0    70.9
 128   21:50   57.0    14    4.1   200      5.4   849.7    0.00       0    70.5
 128   22:00   56.8    14    2.1   194      5.6   849.9    0.00       0    70.3
 128   22:10   52.2    16    4.6     3      7.3   850.0    0.00       0    70.1
 128   22:20   52.5    17    1.9   316      6.0   849.6    0.00       0    69.8
 128   22:30   53.3    16    1.3   154      4.2   849.4    0.00       0    69.6
 128   22:40   53.8    16    2.7   172      3.6   849.6    0.00       0    69.4
 128   22:50   51.9    17    3.3   151      4.7   849.5    0.00       0    69.1
 128   23:00   52.3    17    4.8   144      6.4   849.4    0.00       0    68.9
 128   23:10   53.2    17    3.3   199      5.9   849.2    0.00       0    68.8
 128   23:20   52.6    17    3.4   176      5.1   849.2    0.00       0    68.6
 128   23:30   52.5    17    3.4   138     12.7   849.2    0.00       0    68.5
 128   23:40   58.7    14    6.2   104     17.8   849.3    0.00       0    68.2
 128   23:50   62.1    13    4.1   199      6.4   849.4    0.00       0    68.5
 129    0:00   62.0    13    5.6   241      7.3   849.6    0.00       0    67.7
 129    0:10   57.8    16    5.1   237      6.6   849.7    0.00       0    67.5

Return to St. George, Utah graphs page.


Western Regional Climate Center,wrcc@dri.edu